sensor_id;sensor_type;location;lat;lon;timestamp;P1;durP1;ratioP1;P2;durP2;ratioP2
21091;SDS011;10704;42.678;23.288;2024-03-23T00:53:48;18.20;;;9.75;;
21091;SDS011;10704;42.678;23.288;2024-03-23T00:56:14;22.27;;;10.93;;
21091;SDS011;10704;42.678;23.288;2024-03-23T00:58:40;19.00;;;9.68;;
21091;SDS011;10704;42.678;23.288;2024-03-23T01:01:06;20.80;;;10.65;;
21091;SDS011;10704;42.678;23.288;2024-03-23T01:03:32;21.27;;;9.68;;
21091;SDS011;10704;42.678;23.288;2024-03-23T01:06:01;22.25;;;9.02;;
21091;SDS011;10704;42.678;23.288;2024-03-23T01:08:28;21.02;;;10.00;;
21091;SDS011;10704;42.678;23.288;2024-03-23T01:10:58;15.95;;;8.65;;
21091;SDS011;10704;42.678;23.288;2024-03-23T01:13:25;17.73;;;8.63;;
21091;SDS011;10704;42.678;23.288;2024-03-23T01:15:52;17.38;;;7.45;;
21091;SDS011;10704;42.678;23.288;2024-03-23T01:18:19;16.52;;;8.07;;
21091;SDS011;10704;42.678;23.288;2024-03-23T01:20:46;17.27;;;8.10;;
21091;SDS011;10704;42.678;23.288;2024-03-23T01:23:12;15.88;;;8.10;;
21091;SDS011;10704;42.678;23.288;2024-03-23T01:25:38;14.82;;;7.53;;
21091;SDS011;10704;42.678;23.288;2024-03-23T01:28:05;16.80;;;7.13;;
21091;SDS011;10704;42.678;23.288;2024-03-23T01:30:34;17.40;;;7.35;;
21091;SDS011;10704;42.678;23.288;2024-03-23T01:33:01;15.98;;;7.10;;
21091;SDS011;10704;42.678;23.288;2024-03-23T01:35:30;11.00;;;6.18;;
21091;SDS011;10704;42.678;23.288;2024-03-23T01:37:56;13.68;;;6.30;;
21091;SDS011;10704;42.678;23.288;2024-03-23T01:40:22;13.45;;;6.78;;
21091;SDS011;10704;42.678;23.288;2024-03-23T01:42:57;16.23;;;6.45;;
21091;SDS011;10704;42.678;23.288;2024-03-23T01:45:23;14.15;;;6.53;;
21091;SDS011;10704;42.678;23.288;2024-03-23T01:47:50;14.00;;;6.18;;
21091;SDS011;10704;42.678;23.288;2024-03-23T01:50:18;12.80;;;6.57;;
21091;SDS011;10704;42.678;23.288;2024-03-23T01:52:45;12.30;;;5.75;;
21091;SDS011;10704;42.678;23.288;2024-03-23T01:55:12;19.50;;;8.77;;
21091;SDS011;10704;42.678;23.288;2024-03-23T01:57:38;20.92;;;9.18;;
21091;SDS011;10704;42.678;23.288;2024-03-23T02:00:04;19.38;;;9.35;;
21091;SDS011;10704;42.678;23.288;2024-03-23T02:02:43;22.05;;;9.77;;
21091;SDS011;10704;42.678;23.288;2024-03-23T02:05:13;19.77;;;10.40;;
21091;SDS011;10704;42.678;23.288;2024-03-23T02:07:40;25.05;;;12.23;;
21091;SDS011;10704;42.678;23.288;2024-03-23T02:10:07;24.73;;;12.00;;
21091;SDS011;10704;42.678;23.288;2024-03-23T02:12:34;21.67;;;11.18;;
21091;SDS011;10704;42.678;23.288;2024-03-23T02:15:01;29.35;;;12.60;;
21091;SDS011;10704;42.678;23.288;2024-03-23T02:17:27;23.35;;;10.85;;
21091;SDS011;10704;42.678;23.288;2024-03-23T02:19:55;25.40;;;11.43;;
21091;SDS011;10704;42.678;23.288;2024-03-23T02:22:21;24.40;;;12.82;;
21091;SDS011;10704;42.678;23.288;2024-03-23T02:24:47;19.80;;;11.45;;
21091;SDS011;10704;42.678;23.288;2024-03-23T02:27:13;26.20;;;12.77;;
21091;SDS011;10704;42.678;23.288;2024-03-23T02:29:39;28.15;;;12.73;;
21091;SDS011;10704;42.678;23.288;2024-03-23T02:32:05;30.48;;;13.32;;
21091;SDS011;10704;42.678;23.288;2024-03-23T02:34:31;27.63;;;14.05;;
21091;SDS011;10704;42.678;23.288;2024-03-23T02:36:57;29.45;;;13.20;;
21091;SDS011;10704;42.678;23.288;2024-03-23T02:39:23;24.45;;;12.18;;
21091;SDS011;10704;42.678;23.288;2024-03-23T02:41:49;27.60;;;12.65;;
21091;SDS011;10704;42.678;23.288;2024-03-23T02:44:15;27.58;;;12.43;;
21091;SDS011;10704;42.678;23.288;2024-03-23T02:46:41;25.38;;;12.20;;
21091;SDS011;10704;42.678;23.288;2024-03-23T02:49:07;26.63;;;13.90;;
21091;SDS011;10704;42.678;23.288;2024-03-23T02:51:34;24.05;;;12.40;;
21091;SDS011;10704;42.678;23.288;2024-03-23T02:54:00;21.48;;;11.52;;
21091;SDS011;10704;42.678;23.288;2024-03-23T02:56:26;21.13;;;10.60;;
21091;SDS011;10704;42.678;23.288;2024-03-23T02:58:51;23.55;;;10.50;;
21091;SDS011;10704;42.678;23.288;2024-03-23T03:01:17;24.20;;;10.38;;
21091;SDS011;10704;42.678;23.288;2024-03-23T03:03:43;19.33;;;10.80;;
21091;SDS011;10704;42.678;23.288;2024-03-23T03:06:10;20.80;;;10.60;;
21091;SDS011;10704;42.678;23.288;2024-03-23T03:08:35;22.13;;;11.45;;
21091;SDS011;10704;42.678;23.288;2024-03-23T03:11:01;25.33;;;11.10;;
21091;SDS011;10704;42.678;23.288;2024-03-23T03:13:27;20.15;;;10.43;;
21091;SDS011;10704;42.678;23.288;2024-03-23T03:15:53;22.42;;;11.77;;
21091;SDS011;10704;42.678;23.288;2024-03-23T03:18:19;18.20;;;9.63;;
21091;SDS011;10704;42.678;23.288;2024-03-23T03:20:45;22.73;;;11.43;;
21091;SDS011;10704;42.678;23.288;2024-03-23T03:23:11;22.42;;;11.55;;
21091;SDS011;10704;42.678;23.288;2024-03-23T03:25:37;29.80;;;13.07;;
21091;SDS011;10704;42.678;23.288;2024-03-23T03:28:03;25.23;;;12.88;;
21091;SDS011;10704;42.678;23.288;2024-03-23T03:30:29;21.77;;;11.65;;
21091;SDS011;10704;42.678;23.288;2024-03-23T03:32:55;23.98;;;11.05;;
21091;SDS011;10704;42.678;23.288;2024-03-23T03:35:21;22.52;;;10.77;;
21091;SDS011;10704;42.678;23.288;2024-03-23T03:37:47;23.92;;;10.85;;
21091;SDS011;10704;42.678;23.288;2024-03-23T03:40:13;21.50;;;11.20;;
21091;SDS011;10704;42.678;23.288;2024-03-23T03:42:40;20.33;;;9.85;;
21091;SDS011;10704;42.678;23.288;2024-03-23T03:45:06;19.45;;;10.13;;
21091;SDS011;10704;42.678;23.288;2024-03-23T03:47:33;22.48;;;10.63;;
21091;SDS011;10704;42.678;23.288;2024-03-23T03:49:58;21.58;;;10.50;;
21091;SDS011;10704;42.678;23.288;2024-03-23T03:52:24;21.90;;;10.90;;
21091;SDS011;10704;42.678;23.288;2024-03-23T03:54:51;21.52;;;10.13;;
21091;SDS011;10704;42.678;23.288;2024-03-23T03:57:17;23.48;;;11.13;;
21091;SDS011;10704;42.678;23.288;2024-03-23T03:59:43;22.25;;;10.23;;
21091;SDS011;10704;42.678;23.288;2024-03-23T04:02:09;23.35;;;10.45;;
21091;SDS011;10704;42.678;23.288;2024-03-23T04:04:35;19.10;;;9.65;;
21091;SDS011;10704;42.678;23.288;2024-03-23T04:07:01;23.35;;;11.60;;
21091;SDS011;10704;42.678;23.288;2024-03-23T04:09:27;23.17;;;10.25;;
21091;SDS011;10704;42.678;23.288;2024-03-23T04:11:54;21.30;;;10.38;;
21091;SDS011;10704;42.678;23.288;2024-03-23T04:14:20;23.98;;;10.63;;
21091;SDS011;10704;42.678;23.288;2024-03-23T04:16:46;23.77;;;10.40;;
21091;SDS011;10704;42.678;23.288;2024-03-23T04:19:12;21.13;;;9.57;;
21091;SDS011;10704;42.678;23.288;2024-03-23T04:21:38;19.05;;;9.65;;
21091;SDS011;10704;42.678;23.288;2024-03-23T04:24:04;21.63;;;9.88;;
21091;SDS011;10704;42.678;23.288;2024-03-23T04:26:40;20.83;;;9.75;;
21091;SDS011;10704;42.678;23.288;2024-03-23T04:29:07;19.38;;;9.77;;
21091;SDS011;10704;42.678;23.288;2024-03-23T04:31:32;21.10;;;9.13;;
21091;SDS011;10704;42.678;23.288;2024-03-23T04:34:03;20.33;;;9.23;;
21091;SDS011;10704;42.678;23.288;2024-03-23T04:36:29;18.40;;;8.90;;
21091;SDS011;10704;42.678;23.288;2024-03-23T04:38:59;24.60;;;10.25;;
21091;SDS011;10704;42.678;23.288;2024-03-23T04:41:25;21.08;;;10.07;;
21091;SDS011;10704;42.678;23.288;2024-03-23T04:43:51;22.17;;;9.80;;
21091;SDS011;10704;42.678;23.288;2024-03-23T04:46:17;22.20;;;10.40;;
21091;SDS011;10704;42.678;23.288;2024-03-23T04:48:43;19.90;;;10.82;;
21091;SDS011;10704;42.678;23.288;2024-03-23T04:51:10;27.15;;;11.15;;
21091;SDS011;10704;42.678;23.288;2024-03-23T04:53:37;25.70;;;11.23;;
21091;SDS011;10704;42.678;23.288;2024-03-23T04:56:03;23.85;;;11.90;;
21091;SDS011;10704;42.678;23.288;2024-03-23T04:58:29;23.85;;;11.15;;
21091;SDS011;10704;42.678;23.288;2024-03-23T05:00:58;22.05;;;11.13;;
21091;SDS011;10704;42.678;23.288;2024-03-23T05:03:24;25.88;;;12.38;;
21091;SDS011;10704;42.678;23.288;2024-03-23T05:05:50;24.10;;;11.88;;
21091;SDS011;10704;42.678;23.288;2024-03-23T05:08:16;29.40;;;11.65;;
21091;SDS011;10704;42.678;23.288;2024-03-23T05:10:42;27.52;;;12.20;;
21091;SDS011;10704;42.678;23.288;2024-03-23T05:13:08;24.08;;;11.38;;
21091;SDS011;10704;42.678;23.288;2024-03-23T05:15:34;23.33;;;11.00;;
21091;SDS011;10704;42.678;23.288;2024-03-23T05:18:01;29.60;;;11.50;;
21091;SDS011;10704;42.678;23.288;2024-03-23T05:20:27;26.05;;;10.20;;
21091;SDS011;10704;42.678;23.288;2024-03-23T05:22:54;25.55;;;11.73;;
21091;SDS011;10704;42.678;23.288;2024-03-23T05:25:21;22.05;;;10.07;;
21091;SDS011;10704;42.678;23.288;2024-03-23T05:27:48;23.27;;;11.63;;
21091;SDS011;10704;42.678;23.288;2024-03-23T05:30:14;24.25;;;11.50;;
21091;SDS011;10704;42.678;23.288;2024-03-23T05:32:40;22.58;;;10.63;;
21091;SDS011;10704;42.678;23.288;2024-03-23T05:35:07;20.10;;;10.82;;
21091;SDS011;10704;42.678;23.288;2024-03-23T05:37:34;23.20;;;10.70;;
21091;SDS011;10704;42.678;23.288;2024-03-23T05:40:00;25.00;;;10.98;;
21091;SDS011;10704;42.678;23.288;2024-03-23T05:42:27;22.67;;;10.20;;
21091;SDS011;10704;42.678;23.288;2024-03-23T05:44:53;19.77;;;10.23;;
21091;SDS011;10704;42.678;23.288;2024-03-23T05:47:19;19.08;;;9.68;;
21091;SDS011;10704;42.678;23.288;2024-03-23T05:49:45;22.55;;;10.30;;
21091;SDS011;10704;42.678;23.288;2024-03-23T05:52:11;21.33;;;10.90;;
21091;SDS011;10704;42.678;23.288;2024-03-23T05:54:38;20.70;;;10.18;;
21091;SDS011;10704;42.678;23.288;2024-03-23T05:57:04;20.77;;;10.13;;
21091;SDS011;10704;42.678;23.288;2024-03-23T05:59:32;18.00;;;10.48;;
21091;SDS011;10704;42.678;23.288;2024-03-23T06:01:58;24.65;;;10.52;;
21091;SDS011;10704;42.678;23.288;2024-03-23T06:04:24;16.90;;;9.30;;
21091;SDS011;10704;42.678;23.288;2024-03-23T06:06:53;20.65;;;10.80;;
21091;SDS011;10704;42.678;23.288;2024-03-23T06:09:19;18.63;;;9.98;;
21091;SDS011;10704;42.678;23.288;2024-03-23T06:11:45;20.80;;;10.02;;
21091;SDS011;10704;42.678;23.288;2024-03-23T06:14:11;18.88;;;9.55;;
21091;SDS011;10704;42.678;23.288;2024-03-23T06:16:37;22.65;;;10.63;;
21091;SDS011;10704;42.678;23.288;2024-03-23T06:19:03;21.63;;;10.80;;
21091;SDS011;10704;42.678;23.288;2024-03-23T06:21:32;20.80;;;9.57;;
21091;SDS011;10704;42.678;23.288;2024-03-23T06:23:58;21.88;;;10.70;;
21091;SDS011;10704;42.678;23.288;2024-03-23T06:26:24;22.08;;;9.93;;
21091;SDS011;10704;42.678;23.288;2024-03-23T06:28:50;19.35;;;9.73;;
21091;SDS011;10704;42.678;23.288;2024-03-23T06:31:16;18.25;;;9.95;;
21091;SDS011;10704;42.678;23.288;2024-03-23T06:33:42;18.73;;;9.73;;
21091;SDS011;10704;42.678;23.288;2024-03-23T06:36:11;19.90;;;11.00;;
21091;SDS011;10704;42.678;23.288;2024-03-23T06:38:40;29.75;;;10.65;;
21091;SDS011;10704;42.678;23.288;2024-03-23T06:41:06;19.77;;;10.07;;
21091;SDS011;10704;42.678;23.288;2024-03-23T06:43:33;24.60;;;10.45;;
21091;SDS011;10704;42.678;23.288;2024-03-23T06:45:59;16.77;;;9.90;;
21091;SDS011;10704;42.678;23.288;2024-03-23T06:48:25;16.73;;;9.57;;
21091;SDS011;10704;42.678;23.288;2024-03-23T06:50:55;18.27;;;9.45;;
21091;SDS011;10704;42.678;23.288;2024-03-23T06:53:22;22.25;;;10.07;;
21091;SDS011;10704;42.678;23.288;2024-03-23T06:55:51;21.25;;;9.48;;
21091;SDS011;10704;42.678;23.288;2024-03-23T06:58:19;20.70;;;10.02;;
21091;SDS011;10704;42.678;23.288;2024-03-23T07:00:46;15.43;;;8.88;;
21091;SDS011;10704;42.678;23.288;2024-03-23T07:03:12;18.70;;;9.15;;
21091;SDS011;10704;42.678;23.288;2024-03-23T07:05:38;18.77;;;10.15;;
21091;SDS011;10704;42.678;23.288;2024-03-23T07:08:04;19.40;;;9.45;;
21091;SDS011;10704;42.678;23.288;2024-03-23T07:10:30;19.60;;;10.60;;
21091;SDS011;10704;42.678;23.288;2024-03-23T07:12:56;17.67;;;9.25;;
21091;SDS011;10704;42.678;23.288;2024-03-23T07:15:22;19.20;;;10.32;;
21091;SDS011;10704;42.678;23.288;2024-03-23T07:17:48;17.23;;;10.20;;
21091;SDS011;10704;42.678;23.288;2024-03-23T07:20:14;22.73;;;11.05;;
21091;SDS011;10704;42.678;23.288;2024-03-23T07:22:41;16.08;;;9.38;;
21091;SDS011;10704;42.678;23.288;2024-03-23T07:25:07;22.65;;;10.40;;
21091;SDS011;10704;42.678;23.288;2024-03-23T07:27:33;17.23;;;9.77;;
21091;SDS011;10704;42.678;23.288;2024-03-23T07:29:59;21.20;;;9.85;;
21091;SDS011;10704;42.678;23.288;2024-03-23T07:32:26;16.55;;;9.88;;
21091;SDS011;10704;42.678;23.288;2024-03-23T07:34:52;21.13;;;10.13;;
21091;SDS011;10704;42.678;23.288;2024-03-23T07:37:18;19.88;;;10.60;;
21091;SDS011;10704;42.678;23.288;2024-03-23T07:39:44;23.25;;;11.23;;
21091;SDS011;10704;42.678;23.288;2024-03-23T07:42:10;19.13;;;8.73;;
21091;SDS011;10704;42.678;23.288;2024-03-23T07:44:36;22.98;;;10.85;;
21091;SDS011;10704;42.678;23.288;2024-03-23T07:47:02;23.40;;;10.63;;
21091;SDS011;10704;42.678;23.288;2024-03-23T07:49:28;21.02;;;10.10;;
21091;SDS011;10704;42.678;23.288;2024-03-23T07:51:54;20.70;;;9.98;;
21091;SDS011;10704;42.678;23.288;2024-03-23T07:54:20;21.83;;;10.43;;
21091;SDS011;10704;42.678;23.288;2024-03-23T07:56:46;22.30;;;10.48;;
21091;SDS011;10704;42.678;23.288;2024-03-23T07:59:12;18.38;;;10.02;;
21091;SDS011;10704;42.678;23.288;2024-03-23T08:01:38;19.02;;;10.10;;
21091;SDS011;10704;42.678;23.288;2024-03-23T08:04:05;16.05;;;9.05;;
21091;SDS011;10704;42.678;23.288;2024-03-23T08:06:31;14.63;;;9.95;;
21091;SDS011;10704;42.678;23.288;2024-03-23T08:08:57;15.07;;;9.10;;
21091;SDS011;10704;42.678;23.288;2024-03-23T08:11:30;20.58;;;10.00;;
21091;SDS011;10704;42.678;23.288;2024-03-23T08:13:57;19.73;;;10.13;;
21091;SDS011;10704;42.678;23.288;2024-03-23T08:16:23;20.70;;;11.63;;
21091;SDS011;10704;42.678;23.288;2024-03-23T08:18:52;17.45;;;9.98;;
21091;SDS011;10704;42.678;23.288;2024-03-23T08:21:19;15.85;;;9.52;;
21091;SDS011;10704;42.678;23.288;2024-03-23T08:23:45;22.45;;;9.75;;
21091;SDS011;10704;42.678;23.288;2024-03-23T08:26:12;17.38;;;9.60;;
21091;SDS011;10704;42.678;23.288;2024-03-23T08:28:40;19.60;;;10.35;;
21091;SDS011;10704;42.678;23.288;2024-03-23T08:31:07;20.13;;;10.73;;
21091;SDS011;10704;42.678;23.288;2024-03-23T08:33:34;22.05;;;10.95;;
21091;SDS011;10704;42.678;23.288;2024-03-23T08:36:01;17.50;;;10.43;;
21091;SDS011;10704;42.678;23.288;2024-03-23T08:38:28;18.42;;;10.43;;
21091;SDS011;10704;42.678;23.288;2024-03-23T08:41:07;20.02;;;10.60;;
21091;SDS011;10704;42.678;23.288;2024-03-23T08:43:38;20.42;;;10.38;;
21091;SDS011;10704;42.678;23.288;2024-03-23T08:48:32;21.30;;;10.68;;
21091;SDS011;10704;42.678;23.288;2024-03-23T08:51:14;18.75;;;9.90;;
21091;SDS011;10704;42.678;23.288;2024-03-23T08:53:41;22.17;;;10.68;;
21091;SDS011;10704;42.678;23.288;2024-03-23T08:56:08;15.50;;;9.57;;
21091;SDS011;10704;42.678;23.288;2024-03-23T08:58:36;15.27;;;10.60;;
21091;SDS011;10704;42.678;23.288;2024-03-23T09:01:04;19.60;;;11.02;;
21091;SDS011;10704;42.678;23.288;2024-03-23T09:03:34;19.40;;;10.65;;
21091;SDS011;10704;42.678;23.288;2024-03-23T09:06:01;18.00;;;9.35;;
21091;SDS011;10704;42.678;23.288;2024-03-23T09:08:37;19.80;;;11.20;;
21091;SDS011;10704;42.678;23.288;2024-03-23T09:11:03;14.63;;;9.93;;
21091;SDS011;10704;42.678;23.288;2024-03-23T09:13:34;16.77;;;9.98;;
21091;SDS011;10704;42.678;23.288;2024-03-23T09:16:01;17.20;;;10.60;;
21091;SDS011;10704;42.678;23.288;2024-03-23T09:18:27;18.77;;;10.60;;
21091;SDS011;10704;42.678;23.288;2024-03-23T09:20:53;16.58;;;10.77;;
21091;SDS011;10704;42.678;23.288;2024-03-23T09:23:22;19.38;;;10.98;;
21091;SDS011;10704;42.678;23.288;2024-03-23T09:25:48;18.48;;;11.15;;
21091;SDS011;10704;42.678;23.288;2024-03-23T09:28:14;20.33;;;10.10;;
21091;SDS011;10704;42.678;23.288;2024-03-23T09:30:40;18.27;;;10.55;;
21091;SDS011;10704;42.678;23.288;2024-03-23T09:33:12;20.50;;;10.70;;
21091;SDS011;10704;42.678;23.288;2024-03-23T09:35:41;17.27;;;10.82;;
21091;SDS011;10704;42.678;23.288;2024-03-23T09:38:09;21.90;;;11.00;;
21091;SDS011;10704;42.678;23.288;2024-03-23T09:40:41;18.33;;;10.77;;
21091;SDS011;10704;42.678;23.288;2024-03-23T09:43:08;14.77;;;10.15;;
21091;SDS011;10704;42.678;23.288;2024-03-23T09:45:36;15.50;;;10.82;;
21091;SDS011;10704;42.678;23.288;2024-03-23T09:48:05;21.67;;;10.80;;
21091;SDS011;10704;42.678;23.288;2024-03-23T09:50:36;19.58;;;10.85;;
21091;SDS011;10704;42.678;23.288;2024-03-23T09:53:09;15.23;;;9.75;;
21091;SDS011;10704;42.678;23.288;2024-03-23T09:55:40;15.60;;;9.73;;
21091;SDS011;10704;42.678;23.288;2024-03-23T09:58:07;19.70;;;11.80;;
21091;SDS011;10704;42.678;23.288;2024-03-23T10:00:37;17.20;;;10.15;;
21091;SDS011;10704;42.678;23.288;2024-03-23T10:03:04;19.77;;;10.85;;
21091;SDS011;10704;42.678;23.288;2024-03-23T10:05:34;16.17;;;9.75;;
21091;SDS011;10704;42.678;23.288;2024-03-23T10:08:04;17.58;;;10.90;;
21091;SDS011;10704;42.678;23.288;2024-03-23T10:10:43;16.90;;;9.63;;
21091;SDS011;10704;42.678;23.288;2024-03-23T10:13:10;17.30;;;10.35;;
21091;SDS011;10704;42.678;23.288;2024-03-23T10:15:38;16.38;;;9.57;;
21091;SDS011;10704;42.678;23.288;2024-03-23T10:18:25;20.35;;;10.50;;
21091;SDS011;10704;42.678;23.288;2024-03-23T10:23:40;17.65;;;9.55;;
21091;SDS011;10704;42.678;23.288;2024-03-23T10:28:51;17.48;;;9.13;;
21091;SDS011;10704;42.678;23.288;2024-03-23T10:31:28;15.20;;;8.73;;
21091;SDS011;10704;42.678;23.288;2024-03-23T10:33:54;17.02;;;9.85;;
21091;SDS011;10704;42.678;23.288;2024-03-23T10:36:21;12.75;;;9.48;;
21091;SDS011;10704;42.678;23.288;2024-03-23T10:38:47;15.43;;;9.52;;
21091;SDS011;10704;42.678;23.288;2024-03-23T10:41:16;18.60;;;9.68;;
21091;SDS011;10704;42.678;23.288;2024-03-23T10:43:42;14.30;;;8.77;;
21091;SDS011;10704;42.678;23.288;2024-03-23T10:46:10;17.42;;;8.80;;
21091;SDS011;10704;42.678;23.288;2024-03-23T10:48:36;16.38;;;9.75;;
21091;SDS011;10704;42.678;23.288;2024-03-23T10:51:03;15.15;;;8.73;;
21091;SDS011;10704;42.678;23.288;2024-03-23T10:53:32;21.00;;;9.40;;
21091;SDS011;10704;42.678;23.288;2024-03-23T10:55:59;12.25;;;8.88;;
21091;SDS011;10704;42.678;23.288;2024-03-23T11:01:04;13.55;;;7.57;;
21091;SDS011;10704;42.678;23.288;2024-03-23T11:03:34;17.67;;;9.13;;
21091;SDS011;10704;42.678;23.288;2024-03-23T11:06:07;14.75;;;9.52;;
21091;SDS011;10704;42.678;23.288;2024-03-23T11:08:34;14.10;;;8.57;;
21091;SDS011;10704;42.678;23.288;2024-03-23T11:11:20;12.73;;;8.45;;
21091;SDS011;10704;42.678;23.288;2024-03-23T11:13:48;19.02;;;9.00;;
21091;SDS011;10704;42.678;23.288;2024-03-23T11:18:49;16.52;;;8.90;;
21091;SDS011;10704;42.678;23.288;2024-03-23T11:24:20;14.63;;;8.48;;
21091;SDS011;10704;42.678;23.288;2024-03-23T11:26:47;11.95;;;7.90;;
21091;SDS011;10704;42.678;23.288;2024-03-23T11:29:14;12.77;;;7.95;;
21091;SDS011;10704;42.678;23.288;2024-03-23T11:31:51;18.08;;;7.90;;
21091;SDS011;10704;42.678;23.288;2024-03-23T11:34:21;14.45;;;6.75;;
21091;SDS011;10704;42.678;23.288;2024-03-23T11:36:48;15.93;;;6.97;;
21091;SDS011;10704;42.678;23.288;2024-03-23T11:39:16;13.05;;;8.13;;
21091;SDS011;10704;42.678;23.288;2024-03-23T11:41:50;12.63;;;7.20;;
21091;SDS011;10704;42.678;23.288;2024-03-23T11:44:22;11.73;;;6.75;;
21091;SDS011;10704;42.678;23.288;2024-03-23T11:46:49;14.23;;;8.15;;
21091;SDS011;10704;42.678;23.288;2024-03-23T11:49:28;15.50;;;7.13;;
21091;SDS011;10704;42.678;23.288;2024-03-23T11:51:55;14.05;;;7.50;;
21091;SDS011;10704;42.678;23.288;2024-03-23T11:54:22;12.38;;;7.18;;
21091;SDS011;10704;42.678;23.288;2024-03-23T11:56:56;15.88;;;7.45;;
21091;SDS011;10704;42.678;23.288;2024-03-23T12:02:10;14.30;;;7.32;;
21091;SDS011;10704;42.678;23.288;2024-03-23T12:04:39;12.63;;;7.50;;
21091;SDS011;10704;42.678;23.288;2024-03-23T12:07:09;11.77;;;6.20;;
21091;SDS011;10704;42.678;23.288;2024-03-23T12:09:39;13.15;;;6.50;;
21091;SDS011;10704;42.678;23.288;2024-03-23T12:12:07;11.88;;;6.25;;
21091;SDS011;10704;42.678;23.288;2024-03-23T12:14:34;10.00;;;5.95;;
21091;SDS011;10704;42.678;23.288;2024-03-23T12:17:12;10.55;;;6.35;;
21091;SDS011;10704;42.678;23.288;2024-03-23T12:19:40;8.50;;;5.47;;
21091;SDS011;10704;42.678;23.288;2024-03-23T12:22:07;10.98;;;5.85;;
21091;SDS011;10704;42.678;23.288;2024-03-23T12:24:33;7.13;;;3.90;;
21091;SDS011;10704;42.678;23.288;2024-03-23T12:27:01;6.28;;;3.50;;
21091;SDS011;10704;42.678;23.288;2024-03-23T12:29:28;6.03;;;2.08;;
21091;SDS011;10704;42.678;23.288;2024-03-23T12:31:58;4.53;;;2.45;;
21091;SDS011;10704;42.678;23.288;2024-03-23T12:34:25;11.73;;;7.05;;
21091;SDS011;10704;42.678;23.288;2024-03-23T12:36:51;2.72;;;1.20;;
21091;SDS011;10704;42.678;23.288;2024-03-23T12:39:17;3.22;;;1.45;;
21091;SDS011;10704;42.678;23.288;2024-03-23T12:41:43;1.77;;;0.77;;
21091;SDS011;10704;42.678;23.288;2024-03-23T12:44:09;2.50;;;1.05;;
21091;SDS011;10704;42.678;23.288;2024-03-23T12:46:37;3.08;;;1.10;;
21091;SDS011;10704;42.678;23.288;2024-03-23T12:49:03;3.25;;;1.45;;
21091;SDS011;10704;42.678;23.288;2024-03-23T12:51:30;4.72;;;1.77;;
21091;SDS011;10704;42.678;23.288;2024-03-23T12:53:56;4.82;;;2.47;;
21091;SDS011;10704;42.678;23.288;2024-03-23T12:56:22;6.15;;;1.98;;
21091;SDS011;10704;42.678;23.288;2024-03-23T12:58:48;5.60;;;1.45;;
21091;SDS011;10704;42.678;23.288;2024-03-23T13:01:19;3.67;;;1.33;;
21091;SDS011;10704;42.678;23.288;2024-03-23T13:03:48;2.97;;;1.33;;
21091;SDS011;10704;42.678;23.288;2024-03-23T13:06:18;3.03;;;1.50;;
21091;SDS011;10704;42.678;23.288;2024-03-23T13:08:45;7.65;;;2.80;;
21091;SDS011;10704;42.678;23.288;2024-03-23T13:11:11;4.05;;;1.90;;
21091;SDS011;10704;42.678;23.288;2024-03-23T13:13:39;4.57;;;1.40;;
21091;SDS011;10704;42.678;23.288;2024-03-23T13:16:07;2.03;;;1.20;;
21091;SDS011;10704;42.678;23.288;2024-03-23T13:18:33;3.80;;;1.50;;
21091;SDS011;10704;42.678;23.288;2024-03-23T13:20:59;3.53;;;1.48;;
21091;SDS011;10704;42.678;23.288;2024-03-23T13:23:25;4.32;;;1.60;;
21091;SDS011;10704;42.678;23.288;2024-03-23T13:25:51;2.40;;;1.30;;
21091;SDS011;10704;42.678;23.288;2024-03-23T13:28:19;2.40;;;1.25;;
21091;SDS011;10704;42.678;23.288;2024-03-23T13:30:51;5.10;;;1.40;;
21091;SDS011;10704;42.678;23.288;2024-03-23T13:33:18;3.65;;;1.70;;
21091;SDS011;10704;42.678;23.288;2024-03-23T13:35:51;4.38;;;1.80;;
21091;SDS011;10704;42.678;23.288;2024-03-23T13:38:21;8.98;;;2.13;;
21091;SDS011;10704;42.678;23.288;2024-03-23T13:40:51;3.88;;;1.67;;
21091;SDS011;10704;42.678;23.288;2024-03-23T13:43:24;3.45;;;1.60;;
21091;SDS011;10704;42.678;23.288;2024-03-23T13:45:54;4.82;;;1.70;;
21091;SDS011;10704;42.678;23.288;2024-03-23T13:48:27;7.78;;;3.17;;
21091;SDS011;10704;42.678;23.288;2024-03-23T13:51:00;3.17;;;1.30;;
21091;SDS011;10704;42.678;23.288;2024-03-23T13:53:27;3.00;;;1.80;;
21091;SDS011;10704;42.678;23.288;2024-03-23T13:55:53;3.03;;;1.50;;
21091;SDS011;10704;42.678;23.288;2024-03-23T13:58:20;4.97;;;1.88;;
21091;SDS011;10704;42.678;23.288;2024-03-23T14:00:46;6.03;;;2.00;;
21091;SDS011;10704;42.678;23.288;2024-03-23T14:03:12;3.42;;;1.63;;
21091;SDS011;10704;42.678;23.288;2024-03-23T14:05:39;4.55;;;1.90;;
21091;SDS011;10704;42.678;23.288;2024-03-23T14:08:06;5.03;;;1.73;;
21091;SDS011;10704;42.678;23.288;2024-03-23T14:10:32;3.25;;;1.63;;
21091;SDS011;10704;42.678;23.288;2024-03-23T14:12:58;3.08;;;1.58;;
21091;SDS011;10704;42.678;23.288;2024-03-23T14:15:27;3.45;;;2.00;;
21091;SDS011;10704;42.678;23.288;2024-03-23T14:17:53;5.07;;;1.80;;
21091;SDS011;10704;42.678;23.288;2024-03-23T14:20:22;3.95;;;1.52;;
21091;SDS011;10704;42.678;23.288;2024-03-23T14:22:49;7.38;;;2.80;;
21091;SDS011;10704;42.678;23.288;2024-03-23T14:25:15;5.22;;;2.80;;
21091;SDS011;10704;42.678;23.288;2024-03-23T14:27:43;4.97;;;2.40;;
21091;SDS011;10704;42.678;23.288;2024-03-23T14:30:10;6.95;;;2.72;;
21091;SDS011;10704;42.678;23.288;2024-03-23T14:32:37;4.55;;;2.50;;
21091;SDS011;10704;42.678;23.288;2024-03-23T14:35:04;5.63;;;1.95;;
21091;SDS011;10704;42.678;23.288;2024-03-23T14:37:32;4.32;;;2.17;;
21091;SDS011;10704;42.678;23.288;2024-03-23T14:39:58;4.43;;;2.13;;
21091;SDS011;10704;42.678;23.288;2024-03-23T14:42:24;7.13;;;3.03;;
21091;SDS011;10704;42.678;23.288;2024-03-23T14:44:50;7.38;;;3.20;;
21091;SDS011;10704;42.678;23.288;2024-03-23T14:47:17;5.50;;;3.10;;
21091;SDS011;10704;42.678;23.288;2024-03-23T14:49:46;5.97;;;3.30;;
21091;SDS011;10704;42.678;23.288;2024-03-23T14:52:16;6.55;;;3.03;;
21091;SDS011;10704;42.678;23.288;2024-03-23T14:54:42;5.47;;;2.75;;
21091;SDS011;10704;42.678;23.288;2024-03-23T14:57:08;6.32;;;2.65;;
21091;SDS011;10704;42.678;23.288;2024-03-23T14:59:35;7.90;;;2.78;;
21091;SDS011;10704;42.678;23.288;2024-03-23T15:02:06;8.32;;;3.65;;
21091;SDS011;10704;42.678;23.288;2024-03-23T15:04:35;5.97;;;2.63;;
21091;SDS011;10704;42.678;23.288;2024-03-23T15:07:01;6.97;;;2.88;;
21091;SDS011;10704;42.678;23.288;2024-03-23T15:09:28;6.45;;;3.00;;
21091;SDS011;10704;42.678;23.288;2024-03-23T15:11:54;5.28;;;2.58;;
21091;SDS011;10704;42.678;23.288;2024-03-23T15:14:23;4.80;;;2.55;;
21091;SDS011;10704;42.678;23.288;2024-03-23T15:16:49;5.57;;;2.75;;
21091;SDS011;10704;42.678;23.288;2024-03-23T15:19:16;4.80;;;2.67;;
21091;SDS011;10704;42.678;23.288;2024-03-23T15:21:42;6.25;;;3.03;;
21091;SDS011;10704;42.678;23.288;2024-03-23T15:24:09;4.32;;;2.50;;
21091;SDS011;10704;42.678;23.288;2024-03-23T15:26:38;5.60;;;2.85;;
21091;SDS011;10704;42.678;23.288;2024-03-23T15:29:04;5.47;;;2.95;;
21091;SDS011;10704;42.678;23.288;2024-03-23T15:31:42;7.35;;;2.60;;